sensor_id;sensor_type;location;lat;lon;timestamp;temperature;humidity
82183;DHT22;71763;52.220;13.000;2024-03-17T00:01:49;1.80;58.30
82183;DHT22;71763;52.220;13.000;2024-03-17T00:04:15;1.80;58.20
82183;DHT22;71763;52.220;13.000;2024-03-17T00:06:40;1.80;58.20
82183;DHT22;71763;52.220;13.000;2024-03-17T00:09:06;1.70;58.10
82183;DHT22;71763;52.220;13.000;2024-03-17T00:11:32;1.70;58.10
82183;DHT22;71763;52.220;13.000;2024-03-17T00:13:57;1.80;58.20
82183;DHT22;71763;52.220;13.000;2024-03-17T00:16:23;1.90;58.30
82183;DHT22;71763;52.220;13.000;2024-03-17T00:18:48;1.70;58.10
82183;DHT22;71763;52.220;13.000;2024-03-17T00:21:14;1.70;58.10
82183;DHT22;71763;52.220;13.000;2024-03-17T00:23:39;1.70;58.00
82183;DHT22;71763;52.220;13.000;2024-03-17T00:26:05;1.80;58.10
82183;DHT22;71763;52.220;13.000;2024-03-17T00:28:30;1.80;58.00
82183;DHT22;71763;52.220;13.000;2024-03-17T00:30:56;1.90;57.90
82183;DHT22;71763;52.220;13.000;2024-03-17T00:33:21;1.80;57.80
82183;DHT22;71763;52.220;13.000;2024-03-17T00:35:46;2.00;58.00
82183;DHT22;71763;52.220;13.000;2024-03-17T00:38:12;1.80;57.80
82183;DHT22;71763;52.220;13.000;2024-03-17T00:40:38;1.80;57.80
82183;DHT22;71763;52.220;13.000;2024-03-17T00:43:03;1.90;57.90
82183;DHT22;71763;52.220;13.000;2024-03-17T00:45:29;2.10;58.10
82183;DHT22;71763;52.220;13.000;2024-03-17T00:47:54;1.80;57.80
82183;DHT22;71763;52.220;13.000;2024-03-17T00:50:20;1.90;57.90
82183;DHT22;71763;52.220;13.000;2024-03-17T00:52:45;1.80;57.80
82183;DHT22;71763;52.220;13.000;2024-03-17T00:55:11;1.80;57.80
82183;DHT22;71763;52.220;13.000;2024-03-17T00:57:36;1.90;57.90
82183;DHT22;71763;52.220;13.000;2024-03-17T01:00:03;2.00;58.10
82183;DHT22;71763;52.220;13.000;2024-03-17T01:02:28;2.00;58.10
82183;DHT22;71763;52.220;13.000;2024-03-17T01:04:54;1.80;57.90
82183;DHT22;71763;52.220;13.000;2024-03-17T01:07:19;1.80;57.90
82183;DHT22;71763;52.220;13.000;2024-03-17T01:09:46;1.80;58.00
82183;DHT22;71763;52.220;13.000;2024-03-17T01:12:12;1.80;58.00
82183;DHT22;71763;52.220;13.000;2024-03-17T01:14:37;1.90;58.00
82183;DHT22;71763;52.220;13.000;2024-03-17T01:17:02;1.80;58.00
82183;DHT22;71763;52.220;13.000;2024-03-17T01:19:30;1.70;57.90
82183;DHT22;71763;52.220;13.000;2024-03-17T01:21:55;1.80;58.00
82183;DHT22;71763;52.220;13.000;2024-03-17T01:24:21;1.80;58.00
82183;DHT22;71763;52.220;13.000;2024-03-17T01:26:46;1.80;57.90
82183;DHT22;71763;52.220;13.000;2024-03-17T01:29:12;1.80;58.60
82183;DHT22;71763;52.220;13.000;2024-03-17T01:31:37;2.00;58.20
82183;DHT22;71763;52.220;13.000;2024-03-17T01:34:03;1.80;57.90
82183;DHT22;71763;52.220;13.000;2024-03-17T01:36:28;1.80;58.00
82183;DHT22;71763;52.220;13.000;2024-03-17T01:38:54;1.80;58.00
82183;DHT22;71763;52.220;13.000;2024-03-17T01:41:19;1.90;58.10
82183;DHT22;71763;52.220;13.000;2024-03-17T01:43:45;1.80;58.00
82183;DHT22;71763;52.220;13.000;2024-03-17T01:46:11;1.90;58.20
82183;DHT22;71763;52.220;13.000;2024-03-17T01:48:38;1.70;58.10
82183;DHT22;71763;52.220;13.000;2024-03-17T01:51:04;1.60;58.00
82183;DHT22;71763;52.220;13.000;2024-03-17T01:53:29;1.80;58.20
82183;DHT22;71763;52.220;13.000;2024-03-17T01:55:55;1.90;58.50
82183;DHT22;71763;52.220;13.000;2024-03-17T01:58:22;1.50;58.10
82183;DHT22;71763;52.220;13.000;2024-03-17T02:00:50;1.70;58.40
82183;DHT22;71763;52.220;13.000;2024-03-17T02:03:15;1.50;58.20
82183;DHT22;71763;52.220;13.000;2024-03-17T02:05:40;1.70;58.50
82183;DHT22;71763;52.220;13.000;2024-03-17T02:11:10;1.40;58.40
82183;DHT22;71763;52.220;13.000;2024-03-17T02:13:48;1.50;58.50
82183;DHT22;71763;52.220;13.000;2024-03-17T02:16:13;1.50;58.60
82183;DHT22;71763;52.220;13.000;2024-03-17T02:18:39;1.30;58.40
82183;DHT22;71763;52.220;13.000;2024-03-17T02:21:04;1.30;58.40
82183;DHT22;71763;52.220;13.000;2024-03-17T02:23:33;1.30;58.40
82183;DHT22;71763;52.220;13.000;2024-03-17T02:25:58;1.30;58.50
82183;DHT22;71763;52.220;13.000;2024-03-17T02:28:24;1.40;58.60
82183;DHT22;71763;52.220;13.000;2024-03-17T02:30:49;1.20;58.40
82183;DHT22;71763;52.220;13.000;2024-03-17T02:33:14;1.00;58.30
82183;DHT22;71763;52.220;13.000;2024-03-17T02:35:40;1.20;58.50
82183;DHT22;71763;52.220;13.000;2024-03-17T02:38:06;1.20;58.50
82183;DHT22;71763;52.220;13.000;2024-03-17T02:40:33;1.20;58.50
82183;DHT22;71763;52.220;13.000;2024-03-17T02:42:59;1.10;58.40
82183;DHT22;71763;52.220;13.000;2024-03-17T02:45:24;1.10;58.40
82183;DHT22;71763;52.220;13.000;2024-03-17T02:47:50;1.30;58.60
82183;DHT22;71763;52.220;13.000;2024-03-17T02:50:15;1.40;58.60
82183;DHT22;71763;52.220;13.000;2024-03-17T02:52:41;1.20;58.50
82183;DHT22;71763;52.220;13.000;2024-03-17T02:55:06;1.30;58.50
82183;DHT22;71763;52.220;13.000;2024-03-17T02:57:32;1.20;58.40
82183;DHT22;71763;52.220;13.000;2024-03-17T03:00:00;1.20;58.40
82183;DHT22;71763;52.220;13.000;2024-03-17T03:02:25;1.20;58.40
82183;DHT22;71763;52.220;13.000;2024-03-17T03:04:51;1.40;58.70
82183;DHT22;71763;52.220;13.000;2024-03-17T03:07:16;1.20;58.50
82183;DHT22;71763;52.220;13.000;2024-03-17T03:09:42;1.20;58.50
82183;DHT22;71763;52.220;13.000;2024-03-17T03:12:07;1.40;58.60
82183;DHT22;71763;52.220;13.000;2024-03-17T03:14:33;1.20;58.40
82183;DHT22;71763;52.220;13.000;2024-03-17T03:16:58;1.40;58.60
82183;DHT22;71763;52.220;13.000;2024-03-17T03:19:25;1.20;58.40
82183;DHT22;71763;52.220;13.000;2024-03-17T03:21:53;1.30;58.40
82183;DHT22;71763;52.220;13.000;2024-03-17T03:24:19;1.20;58.30
82183;DHT22;71763;52.220;13.000;2024-03-17T03:26:44;1.30;58.40
82183;DHT22;71763;52.220;13.000;2024-03-17T03:29:10;1.20;58.40
82183;DHT22;71763;52.220;13.000;2024-03-17T03:31:36;1.30;58.40
82183;DHT22;71763;52.220;13.000;2024-03-17T03:34:01;1.30;58.50
82183;DHT22;71763;52.220;13.000;2024-03-17T03:36:28;1.30;58.50
82183;DHT22;71763;52.220;13.000;2024-03-17T03:38:54;1.30;58.50
82183;DHT22;71763;52.220;13.000;2024-03-17T03:41:19;1.40;58.60
82183;DHT22;71763;52.220;13.000;2024-03-17T03:43:45;1.20;58.40
82183;DHT22;71763;52.220;13.000;2024-03-17T03:46:12;1.40;58.50
82183;DHT22;71763;52.220;13.000;2024-03-17T03:48:38;1.40;58.50
82183;DHT22;71763;52.220;13.000;2024-03-17T03:51:07;1.40;58.50
82183;DHT22;71763;52.220;13.000;2024-03-17T03:53:33;1.40;58.50
82183;DHT22;71763;52.220;13.000;2024-03-17T03:55:58;1.60;58.60
82183;DHT22;71763;52.220;13.000;2024-03-17T03:58:27;1.40;58.50
82183;DHT22;71763;52.220;13.000;2024-03-17T04:00:54;1.50;58.60
82183;DHT22;71763;52.220;13.000;2024-03-17T04:03:20;1.70;58.80
82183;DHT22;71763;52.220;13.000;2024-03-17T04:05:46;1.40;58.50
82183;DHT22;71763;52.220;13.000;2024-03-17T04:08:11;1.40;58.50
82183;DHT22;71763;52.220;13.000;2024-03-17T04:10:36;1.40;58.60
82183;DHT22;71763;52.220;13.000;2024-03-17T04:13:02;1.70;58.90
82183;DHT22;71763;52.220;13.000;2024-03-17T04:15:28;1.60;58.80
82183;DHT22;71763;52.220;13.000;2024-03-17T04:17:53;1.40;58.70
82183;DHT22;71763;52.220;13.000;2024-03-17T04:20:19;1.40;58.60
82183;DHT22;71763;52.220;13.000;2024-03-17T04:22:44;1.30;58.60
82183;DHT22;71763;52.220;13.000;2024-03-17T04:25:10;1.30;58.70
82183;DHT22;71763;52.220;13.000;2024-03-17T04:27:36;1.30;58.80
82183;DHT22;71763;52.220;13.000;2024-03-17T04:30:02;1.30;58.90
82183;DHT22;71763;52.220;13.000;2024-03-17T04:32:31;1.20;58.90
82183;DHT22;71763;52.220;13.000;2024-03-17T04:34:56;1.30;59.00
82183;DHT22;71763;52.220;13.000;2024-03-17T04:37:22;1.20;59.00
82183;DHT22;71763;52.220;13.000;2024-03-17T04:39:47;1.20;59.00
82183;DHT22;71763;52.220;13.000;2024-03-17T04:42:14;1.20;59.10
82183;DHT22;71763;52.220;13.000;2024-03-17T04:44:40;1.30;59.30
82183;DHT22;71763;52.220;13.000;2024-03-17T04:47:06;1.00;59.10
82183;DHT22;71763;52.220;13.000;2024-03-17T04:49:50;1.00;59.20
82183;DHT22;71763;52.220;13.000;2024-03-17T04:52:15;1.10;59.30
82183;DHT22;71763;52.220;13.000;2024-03-17T04:54:41;1.00;59.20
82183;DHT22;71763;52.220;13.000;2024-03-17T04:57:08;1.00;59.20
82183;DHT22;71763;52.220;13.000;2024-03-17T04:59:34;1.10;59.30
82183;DHT22;71763;52.220;13.000;2024-03-17T05:01:59;1.00;59.20
82183;DHT22;71763;52.220;13.000;2024-03-17T05:04:25;1.00;59.10
82183;DHT22;71763;52.220;13.000;2024-03-17T05:06:50;1.00;59.10
82183;DHT22;71763;52.220;13.000;2024-03-17T05:09:16;1.10;59.20
82183;DHT22;71763;52.220;13.000;2024-03-17T05:11:41;1.00;59.20
82183;DHT22;71763;52.220;13.000;2024-03-17T05:14:07;1.00;59.30
82183;DHT22;71763;52.220;13.000;2024-03-17T05:16:32;1.10;59.40
82183;DHT22;71763;52.220;13.000;2024-03-17T05:18:58;1.00;59.20
82183;DHT22;71763;52.220;13.000;2024-03-17T05:21:23;1.10;59.40
82183;DHT22;71763;52.220;13.000;2024-03-17T05:23:49;1.10;59.30
82183;DHT22;71763;52.220;13.000;2024-03-17T05:26:15;1.00;59.30
82183;DHT22;71763;52.220;13.000;2024-03-17T05:28:40;1.10;59.30
82183;DHT22;71763;52.220;13.000;2024-03-17T05:31:06;1.10;59.30
82183;DHT22;71763;52.220;13.000;2024-03-17T05:33:31;1.10;59.20
82183;DHT22;71763;52.220;13.000;2024-03-17T05:35:57;1.00;59.10
82183;DHT22;71763;52.220;13.000;2024-03-17T05:38:23;1.10;59.20
82183;DHT22;71763;52.220;13.000;2024-03-17T05:40:53;1.30;59.30
82183;DHT22;71763;52.220;13.000;2024-03-17T05:43:19;1.10;59.10
82183;DHT22;71763;52.220;13.000;2024-03-17T05:45:44;1.20;59.10
82183;DHT22;71763;52.220;13.000;2024-03-17T05:48:10;1.20;59.20
82183;DHT22;71763;52.220;13.000;2024-03-17T05:50:35;1.20;59.00
82183;DHT22;71763;52.220;13.000;2024-03-17T05:53:00;1.20;59.00
82183;DHT22;71763;52.220;13.000;2024-03-17T05:55:26;1.40;59.10
82183;DHT22;71763;52.220;13.000;2024-03-17T05:57:51;1.40;59.00
82183;DHT22;71763;52.220;13.000;2024-03-17T06:00:17;1.40;59.00
82183;DHT22;71763;52.220;13.000;2024-03-17T06:02:43;1.50;58.90
82183;DHT22;71763;52.220;13.000;2024-03-17T06:05:09;1.70;59.00
82183;DHT22;71763;52.220;13.000;2024-03-17T06:07:37;1.50;58.80
82183;DHT22;71763;52.220;13.000;2024-03-17T06:10:03;1.80;59.10
82183;DHT22;71763;52.220;13.000;2024-03-17T06:12:28;1.80;59.00
82183;DHT22;71763;52.220;13.000;2024-03-17T06:14:55;1.70;58.90
82183;DHT22;71763;52.220;13.000;2024-03-17T06:17:21;1.70;58.90
82183;DHT22;71763;52.220;13.000;2024-03-17T06:19:46;1.70;58.80
82183;DHT22;71763;52.220;13.000;2024-03-17T06:22:12;1.80;58.80
82183;DHT22;71763;52.220;13.000;2024-03-17T06:24:37;1.90;58.80
82183;DHT22;71763;52.220;13.000;2024-03-17T06:27:03;2.00;58.80
82183;DHT22;71763;52.220;13.000;2024-03-17T06:29:28;2.10;58.70
82183;DHT22;71763;52.220;13.000;2024-03-17T06:31:54;2.20;58.70
82183;DHT22;71763;52.220;13.000;2024-03-17T06:34:20;2.20;58.50
82183;DHT22;71763;52.220;13.000;2024-03-17T06:36:47;2.40;58.60
82183;DHT22;71763;52.220;13.000;2024-03-17T06:39:13;2.30;58.50
82183;DHT22;71763;52.220;13.000;2024-03-17T06:41:41;2.40;58.50
82183;DHT22;71763;52.220;13.000;2024-03-17T06:44:07;2.50;58.30
82183;DHT22;71763;52.220;13.000;2024-03-17T06:46:32;2.60;58.30
82183;DHT22;71763;52.220;13.000;2024-03-17T06:48:58;2.70;58.20
82183;DHT22;71763;52.220;13.000;2024-03-17T06:51:25;2.80;58.20
82183;DHT22;71763;52.220;13.000;2024-03-17T06:53:50;2.90;58.10
82183;DHT22;71763;52.220;13.000;2024-03-17T06:56:16;3.00;57.90
82183;DHT22;71763;52.220;13.000;2024-03-17T06:58:41;3.40;58.10
82183;DHT22;71763;52.220;13.000;2024-03-17T07:01:07;5.10;57.60
82183;DHT22;71763;52.220;13.000;2024-03-17T07:03:34;7.20;54.30
82183;DHT22;71763;52.220;13.000;2024-03-17T07:05:59;9.30;50.40
82183;DHT22;71763;52.220;13.000;2024-03-17T07:08:27;11.10;47.60
82183;DHT22;71763;52.220;13.000;2024-03-17T07:10:56;12.60;44.70
82183;DHT22;71763;52.220;13.000;2024-03-17T07:13:22;13.70;43.30
82183;DHT22;71763;52.220;13.000;2024-03-17T07:15:48;14.20;42.40
82183;DHT22;71763;52.220;13.000;2024-03-17T07:18:14;13.70;42.50
82183;DHT22;71763;52.220;13.000;2024-03-17T07:20:40;13.20;43.90
82183;DHT22;71763;52.220;13.000;2024-03-17T07:23:05;13.40;44.40
82183;DHT22;71763;52.220;13.000;2024-03-17T07:25:31;14.10;44.70
82183;DHT22;71763;52.220;13.000;2024-03-17T07:27:56;14.60;44.00
82183;DHT22;71763;52.220;13.000;2024-03-17T07:30:22;14.30;43.90
82183;DHT22;71763;52.220;13.000;2024-03-17T07:32:47;13.90;44.50
82183;DHT22;71763;52.220;13.000;2024-03-17T07:35:13;13.50;45.70
82183;DHT22;71763;52.220;13.000;2024-03-17T07:37:39;13.00;46.80
82183;DHT22;71763;52.220;13.000;2024-03-17T07:40:05;12.30;48.30
82183;DHT22;71763;52.220;13.000;2024-03-17T07:42:32;11.30;49.40
82183;DHT22;71763;52.220;13.000;2024-03-17T07:44:58;10.40;51.50
82183;DHT22;71763;52.220;13.000;2024-03-17T07:47:23;9.70;53.50
82183;DHT22;71763;52.220;13.000;2024-03-17T07:49:48;9.20;54.80
82183;DHT22;71763;52.220;13.000;2024-03-17T07:52:14;8.80;55.60
82183;DHT22;71763;52.220;13.000;2024-03-17T07:54:40;8.50;56.20
82183;DHT22;71763;52.220;13.000;2024-03-17T07:57:06;8.20;56.90
82183;DHT22;71763;52.220;13.000;2024-03-17T07:59:31;8.10;56.80
82183;DHT22;71763;52.220;13.000;2024-03-17T08:01:56;7.90;57.30
82183;DHT22;71763;52.220;13.000;2024-03-17T08:04:22;7.70;56.50
82183;DHT22;71763;52.220;13.000;2024-03-17T08:06:48;7.70;56.50
82183;DHT22;71763;52.220;13.000;2024-03-17T08:09:13;7.60;56.40
82183;DHT22;71763;52.220;13.000;2024-03-17T08:11:41;7.50;56.30
82183;DHT22;71763;52.220;13.000;2024-03-17T08:14:11;7.50;56.30
82183;DHT22;71763;52.220;13.000;2024-03-17T08:16:37;7.50;56.30
82183;DHT22;71763;52.220;13.000;2024-03-17T08:19:02;7.40;56.30
82183;DHT22;71763;52.220;13.000;2024-03-17T08:21:28;7.40;56.30
82183;DHT22;71763;52.220;13.000;2024-03-17T08:23:55;7.40;56.30
82183;DHT22;71763;52.220;13.000;2024-03-17T08:26:20;7.40;56.20
82183;DHT22;71763;52.220;13.000;2024-03-17T08:28:46;7.50;55.80
82183;DHT22;71763;52.220;13.000;2024-03-17T08:31:12;7.50;55.50
82183;DHT22;71763;52.220;13.000;2024-03-17T08:33:38;7.50;55.20
82183;DHT22;71763;52.220;13.000;2024-03-17T08:36:07;7.60;55.20
82183;DHT22;71763;52.220;13.000;2024-03-17T08:38:33;7.60;55.10
82183;DHT22;71763;52.220;13.000;2024-03-17T08:41:16;7.70;54.90
82183;DHT22;71763;52.220;13.000;2024-03-17T08:43:42;7.80;54.70
82183;DHT22;71763;52.220;13.000;2024-03-17T08:46:09;8.00;54.60
82183;DHT22;71763;52.220;13.000;2024-03-17T08:48:35;8.10;54.30
82183;DHT22;71763;52.220;13.000;2024-03-17T08:51:01;8.50;53.90
82183;DHT22;71763;52.220;13.000;2024-03-17T08:53:27;9.00;53.20
82183;DHT22;71763;52.220;13.000;2024-03-17T08:55:53;9.90;53.00
82183;DHT22;71763;52.220;13.000;2024-03-17T08:58:19;10.60;50.30
82183;DHT22;71763;52.220;13.000;2024-03-17T09:00:44;11.30;49.40
82183;DHT22;71763;52.220;13.000;2024-03-17T09:03:10;12.00;48.40
82183;DHT22;71763;52.220;13.000;2024-03-17T09:05:37;12.70;47.80
82183;DHT22;71763;52.220;13.000;2024-03-17T09:08:03;13.50;46.40
82183;DHT22;71763;52.220;13.000;2024-03-17T09:10:28;14.60;45.10
82183;DHT22;71763;52.220;13.000;2024-03-17T09:12:54;16.30;42.90
82183;DHT22;71763;52.220;13.000;2024-03-17T09:15:19;17.00;41.60
82183;DHT22;71763;52.220;13.000;2024-03-17T09:17:46;17.50;41.30
82183;DHT22;71763;52.220;13.000;2024-03-17T09:20:12;17.60;40.60
82183;DHT22;71763;52.220;13.000;2024-03-17T09:22:38;18.10;40.50
82183;DHT22;71763;52.220;13.000;2024-03-17T09:25:07;18.90;39.40
82183;DHT22;71763;52.220;13.000;2024-03-17T09:27:33;19.80;38.30
82183;DHT22;71763;52.220;13.000;2024-03-17T09:29:59;20.10;37.70
82183;DHT22;71763;52.220;13.000;2024-03-17T09:32:25;20.80;37.20
82183;DHT22;71763;52.220;13.000;2024-03-17T09:34:50;21.40;36.50
82183;DHT22;71763;52.220;13.000;2024-03-17T09:37:16;21.90;35.80
82183;DHT22;71763;52.220;13.000;2024-03-17T09:39:41;22.10;35.20
82183;DHT22;71763;52.220;13.000;2024-03-17T09:42:16;22.00;35.60
82183;DHT22;71763;52.220;13.000;2024-03-17T09:44:42;21.80;36.30
82183;DHT22;71763;52.220;13.000;2024-03-17T09:47:10;21.80;36.70
82183;DHT22;71763;52.220;13.000;2024-03-17T09:49:41;22.20;36.50
82183;DHT22;71763;52.220;13.000;2024-03-17T09:52:07;22.50;36.30
82183;DHT22;71763;52.220;13.000;2024-03-17T09:54:39;23.00;35.80
82183;DHT22;71763;52.220;13.000;2024-03-17T09:57:07;23.20;35.40
82183;DHT22;71763;52.220;13.000;2024-03-17T09:59:39;23.30;35.50
82183;DHT22;71763;52.220;13.000;2024-03-17T10:02:04;22.40;36.70
82183;DHT22;71763;52.220;13.000;2024-03-17T10:04:34;21.70;38.30
82183;DHT22;71763;52.220;13.000;2024-03-17T10:07:00;21.70;39.00
82183;DHT22;71763;52.220;13.000;2024-03-17T10:09:25;22.30;38.60
82183;DHT22;71763;52.220;13.000;2024-03-17T10:11:53;23.10;37.70
82183;DHT22;71763;52.220;13.000;2024-03-17T10:14:18;23.80;36.10
82183;DHT22;71763;52.220;13.000;2024-03-17T10:16:44;23.90;36.00
82183;DHT22;71763;52.220;13.000;2024-03-17T10:19:14;23.60;36.30
82183;DHT22;71763;52.220;13.000;2024-03-17T10:21:40;23.50;36.90
82183;DHT22;71763;52.220;13.000;2024-03-17T10:24:13;23.80;37.00
82183;DHT22;71763;52.220;13.000;2024-03-17T10:26:56;24.10;36.20
82183;DHT22;71763;52.220;13.000;2024-03-17T10:29:23;24.00;36.80
82183;DHT22;71763;52.220;13.000;2024-03-17T10:31:50;23.80;37.30
82183;DHT22;71763;52.220;13.000;2024-03-17T10:34:18;23.40;38.00
82183;DHT22;71763;52.220;13.000;2024-03-17T10:36:46;22.80;38.80
82183;DHT22;71763;52.220;13.000;2024-03-17T10:39:24;22.40;39.70
82183;DHT22;71763;52.220;13.000;2024-03-17T10:41:59;22.00;40.20
82183;DHT22;71763;52.220;13.000;2024-03-17T10:44:30;21.50;41.00
82183;DHT22;71763;52.220;13.000;2024-03-17T10:46:56;21.30;41.50
82183;DHT22;71763;52.220;13.000;2024-03-17T10:49:23;20.90;41.90
82183;DHT22;71763;52.220;13.000;2024-03-17T10:51:53;20.70;42.50
82183;DHT22;71763;52.220;13.000;2024-03-17T10:54:25;20.50;43.00
82183;DHT22;71763;52.220;13.000;2024-03-17T10:59:41;20.50;43.20
82183;DHT22;71763;52.220;13.000;2024-03-17T11:02:23;19.70;44.00
82183;DHT22;71763;52.220;13.000;2024-03-17T11:04:53;18.70;44.20
82183;DHT22;71763;52.220;13.000;2024-03-17T11:07:19;18.20;45.80
82183;DHT22;71763;52.220;13.000;2024-03-17T11:09:45;18.10;46.10
82183;DHT22;71763;52.220;13.000;2024-03-17T11:17:32;18.20;45.90
82183;DHT22;71763;52.220;13.000;2024-03-17T11:20:17;18.40;45.60
82183;DHT22;71763;52.220;13.000;2024-03-17T11:22:44;18.20;45.40
82183;DHT22;71763;52.220;13.000;2024-03-17T11:27:50;18.10;45.60
82183;DHT22;71763;52.220;13.000;2024-03-17T11:33:00;18.10;45.50
82183;DHT22;71763;52.220;13.000;2024-03-17T11:35:25;18.20;45.20
82183;DHT22;71763;52.220;13.000;2024-03-17T11:37:51;18.40;44.90
82183;DHT22;71763;52.220;13.000;2024-03-17T11:40:24;18.50;44.70
82183;DHT22;71763;52.220;13.000;2024-03-17T11:43:03;18.60;44.60
82183;DHT22;71763;52.220;13.000;2024-03-17T11:45:30;18.80;44.30
82183;DHT22;71763;52.220;13.000;2024-03-17T11:47:55;19.00;43.90
82183;DHT22;71763;52.220;13.000;2024-03-17T11:50:21;19.20;43.50
82183;DHT22;71763;52.220;13.000;2024-03-17T11:52:46;19.40;43.70
82183;DHT22;71763;52.220;13.000;2024-03-17T11:55:22;19.50;43.80
82183;DHT22;71763;52.220;13.000;2024-03-17T11:57:47;19.30;43.60
82183;DHT22;71763;52.220;13.000;2024-03-17T12:00:21;19.30;43.60
82183;DHT22;71763;52.220;13.000;2024-03-17T12:02:48;19.40;43.70
82183;DHT22;71763;52.220;13.000;2024-03-17T12:05:13;19.30;43.60
82183;DHT22;71763;52.220;13.000;2024-03-17T12:07:42;19.20;43.50
82183;DHT22;71763;52.220;13.000;2024-03-17T12:10:09;19.10;43.40
82183;DHT22;71763;52.220;13.000;2024-03-17T12:12:35;19.20;43.50
82183;DHT22;71763;52.220;13.000;2024-03-17T12:15:00;19.30;43.60
82183;DHT22;71763;52.220;13.000;2024-03-17T12:17:27;19.40;43.70
82183;DHT22;71763;52.220;13.000;2024-03-17T12:19:53;19.60;43.90
82183;DHT22;71763;52.220;13.000;2024-03-17T12:22:19;19.60;43.90
82183;DHT22;71763;52.220;13.000;2024-03-17T12:24:50;19.50;43.80
82183;DHT22;71763;52.220;13.000;2024-03-17T12:27:20;19.70;44.00
82183;DHT22;71763;52.220;13.000;2024-03-17T12:29:46;19.70;44.00
82183;DHT22;71763;52.220;13.000;2024-03-17T12:32:16;19.40;43.70
82183;DHT22;71763;52.220;13.000;2024-03-17T12:34:43;19.10;43.40
82183;DHT22;71763;52.220;13.000;2024-03-17T12:37:11;19.10;43.40
82183;DHT22;71763;52.220;13.000;2024-03-17T12:39:40;19.10;43.40
82183;DHT22;71763;52.220;13.000;2024-03-17T12:42:07;19.30;43.60
82183;DHT22;71763;52.220;13.000;2024-03-17T12:44:33;19.20;43.60
82183;DHT22;71763;52.220;13.000;2024-03-17T12:47:00;19.00;43.30
82183;DHT22;71763;52.220;13.000;2024-03-17T12:49:26;19.10;43.40
82183;DHT22;71763;52.220;13.000;2024-03-17T12:51:52;19.10;43.50
82183;DHT22;71763;52.220;13.000;2024-03-17T12:54:24;19.20;43.50
82183;DHT22;71763;52.220;13.000;2024-03-17T12:56:50;19.30;43.60
82183;DHT22;71763;52.220;13.000;2024-03-17T12:59:38;19.30;43.60
82183;DHT22;71763;52.220;13.000;2024-03-17T13:02:42;19.10;43.40
82183;DHT22;71763;52.220;13.000;2024-03-17T13:05:15;18.70;43.10
82183;DHT22;71763;52.220;13.000;2024-03-17T13:07:42;18.30;42.80
82183;DHT22;71763;52.220;13.000;2024-03-17T13:10:08;18.10;43.30
82183;DHT22;71763;52.220;13.000;2024-03-17T13:12:34;18.10;42.90
82183;DHT22;71763;52.220;13.000;2024-03-17T13:15:00;17.90;43.00
82183;DHT22;71763;52.220;13.000;2024-03-17T13:17:25;18.00;42.90
82183;DHT22;71763;52.220;13.000;2024-03-17T13:19:50;18.00;42.50
82183;DHT22;71763;52.220;13.000;2024-03-17T13:22:16;17.80;42.30
82183;DHT22;71763;52.220;13.000;2024-03-17T13:24:41;17.70;42.50
82183;DHT22;71763;52.220;13.000;2024-03-17T13:27:07;17.60;42.50
82183;DHT22;71763;52.220;13.000;2024-03-17T13:29:34;17.50;42.40
82183;DHT22;71763;52.220;13.000;2024-03-17T13:32:02;17.40;42.00
82183;DHT22;71763;52.220;13.000;2024-03-17T13:34:27;17.10;42.70
82183;DHT22;71763;52.220;13.000;2024-03-17T13:36:53;17.10;42.70
82183;DHT22;71763;52.220;13.000;2024-03-17T13:39:19;17.00;42.70
82183;DHT22;71763;52.220;13.000;2024-03-17T13:41:47;17.00;42.70
82183;DHT22;71763;52.220;13.000;2024-03-17T13:44:12;17.10;42.50
82183;DHT22;71763;52.220;13.000;2024-03-17T13:46:38;17.10;42.20
82183;DHT22;71763;52.220;13.000;2024-03-17T13:49:07;17.30;41.90
82183;DHT22;71763;52.220;13.000;2024-03-17T13:51:33;17.40;42.00
82183;DHT22;71763;52.220;13.000;2024-03-17T13:53:59;17.30;41.90
82183;DHT22;71763;52.220;13.000;2024-03-17T13:56:24;16.90;41.50
82183;DHT22;71763;52.220;13.000;2024-03-17T13:58:50;16.60;42.50
82183;DHT22;71763;52.220;13.000;2024-03-17T14:01:16;16.30;43.00
82183;DHT22;71763;52.220;13.000;2024-03-17T14:03:41;16.30;43.00
82183;DHT22;71763;52.220;13.000;2024-03-17T14:06:08;16.50;42.90
82183;DHT22;71763;52.220;13.000;2024-03-17T14:08:34;16.60;42.40
82183;DHT22;71763;52.220;13.000;2024-03-17T14:11:03;16.80;42.10
82183;DHT22;71763;52.220;13.000;2024-03-17T14:13:29;17.00;41.60
82183;DHT22;71763;52.220;13.000;2024-03-17T14:16:04;17.10;41.70
82183;DHT22;71763;52.220;13.000;2024-03-17T14:18:33;17.20;41.80
82183;DHT22;71763;52.220;13.000;2024-03-17T14:20:58;17.20;41.80
82183;DHT22;71763;52.220;13.000;2024-03-17T14:23:24;17.10;41.70
82183;DHT22;71763;52.220;13.000;2024-03-17T14:25:50;17.00;41.60
82183;DHT22;71763;52.220;13.000;2024-03-17T14:28:15;17.00;41.60
82183;DHT22;71763;52.220;13.000;2024-03-17T14:30:41;17.00;41.60
82183;DHT22;71763;52.220;13.000;2024-03-17T14:33:06;16.80;41.40
82183;DHT22;71763;52.220;13.000;2024-03-17T14:35:33;16.70;41.30
82183;DHT22;71763;52.220;13.000;2024-03-17T14:37:58;16.60;41.20
82183;DHT22;71763;52.220;13.000;2024-03-17T14:40:25;16.60;41.20
82183;DHT22;71763;52.220;13.000;2024-03-17T14:42:50;16.50;41.10
82183;DHT22;71763;52.220;13.000;2024-03-17T14:45:16;16.40;41.10
82183;DHT22;71763;52.220;13.000;2024-03-17T14:47:42;16.30;41.60
82183;DHT22;71763;52.220;13.000;2024-03-17T14:50:08;16.20;41.60
82183;DHT22;71763;52.220;13.000;2024-03-17T14:52:33;16.00;41.80
82183;DHT22;71763;52.220;13.000;2024-03-17T14:55:00;15.90;42.00
82183;DHT22;71763;52.220;13.000;2024-03-17T14:57:25;15.80;42.00
82183;DHT22;71763;52.220;13.000;2024-03-17T14:59:51;15.70;42.10
82183;DHT22;71763;52.220;13.000;2024-03-17T15:02:17;15.50;42.10
82183;DHT22;71763;52.220;13.000;2024-03-17T15:04:42;15.40;42.10
82183;DHT22;71763;52.220;13.000;2024-03-17T15:07:07;15.40;42.20
82183;DHT22;71763;52.220;13.000;2024-03-17T15:09:34;15.20;42.10
82183;DHT22;71763;52.220;13.000;2024-03-17T15:11:59;15.20;42.30
82183;DHT22;71763;52.220;13.000;2024-03-17T15:14:27;15.20;42.20
82183;DHT22;71763;52.220;13.000;2024-03-17T15:16:52;15.10;42.10
82183;DHT22;71763;52.220;13.000;2024-03-17T15:19:18;15.00;42.10
82183;DHT22;71763;52.220;13.000;2024-03-17T15:21:44;15.00;42.20
82183;DHT22;71763;52.220;13.000;2024-03-17T15:24:10;14.90;42.10
82183;DHT22;71763;52.220;13.000;2024-03-17T15:26:36;14.80;42.10
82183;DHT22;71763;52.220;13.000;2024-03-17T15:29:01;14.70;42.20
82183;DHT22;71763;52.220;13.000;2024-03-17T15:31:31;14.60;42.10
82183;DHT22;71763;52.220;13.000;2024-03-17T15:33:57;14.50;42.20
82183;DHT22;71763;52.220;13.000;2024-03-17T15:36:22;14.40;42.20
82183;DHT22;71763;52.220;13.000;2024-03-17T15:38:49;14.30;42.20